createdAt,value
2019-01-13T00:29:55.807Z,0.73
2019-01-13T00:59:39.584Z,1.70
2019-01-13T13:28:32.936Z,0.17
2019-01-13T14:20:56.681Z,0.10
2019-01-13T18:27:22.277Z,1.77
2019-01-13T19:07:11.436Z,0.80
2019-01-13T19:33:28.656Z,1.60
2019-01-13T19:49:34.892Z,1.30
2019-01-13T19:52:42.240Z,0.93
2019-01-13T21:53:50.079Z,1.43
2019-01-13T22:03:13.531Z,1.07
2019-01-13T22:05:43.984Z,0.97
2019-01-13T22:08:14.528Z,0.50
2019-01-13T22:10:45.093Z,0.63
2019-01-13T22:13:15.486Z,0.57
2019-01-13T22:15:45.979Z,0.57
2019-01-13T22:18:16.532Z,0.30
2019-01-13T22:20:47.127Z,0.00
2019-01-13T22:23:17.619Z,0.10
2019-01-13T22:25:48.061Z,0.10
2019-01-13T22:28:18.537Z,0.20
2019-01-13T22:30:48.976Z,0.10
2019-01-13T22:33:19.743Z,0.00
2019-01-13T22:35:50.269Z,0.10
2019-01-13T22:38:20.801Z,0.10
2019-01-13T22:40:51.223Z,0.20
2019-01-13T22:43:21.664Z,0.20
2019-01-13T22:45:52.169Z,0.30
2019-01-13T22:48:22.695Z,0.20
2019-01-13T22:50:53.200Z,0.47
2019-01-13T22:53:23.786Z,1.10
2019-01-13T22:55:54.295Z,0.50
2019-01-13T22:58:24.809Z,0.67
2019-01-13T23:01:35.724Z,0.90
2019-01-13T23:04:10.856Z,0.50
2019-01-13T23:06:41.418Z,1.00
2019-01-13T23:09:12.931Z,0.63
2019-01-13T23:11:43.308Z,1.00
2019-01-13T23:14:14.758Z,0.90
2019-01-13T23:16:45.052Z,1.37
2019-01-13T23:19:15.546Z,1.50
2019-01-13T23:21:46.915Z,1.50
2019-01-13T23:24:17.339Z,1.87
2019-01-13T23:26:47.747Z,1.30
2019-01-13T23:29:18.206Z,1.73
2019-01-13T23:31:48.657Z,1.50
2019-01-13T23:34:19.125Z,1.63
2019-01-13T23:36:49.597Z,1.80
2019-01-13T23:39:19.934Z,1.57
2019-01-13T23:41:50.392Z,1.60
2019-01-13T23:44:20.945Z,1.73
2019-01-13T23:46:51.737Z,1.60
2019-01-13T23:49:22.435Z,1.30
2019-01-13T23:51:52.997Z,1.10
2019-01-13T23:54:23.517Z,1.13
2019-01-13T23:56:53.841Z,0.80
2019-01-13T23:59:24.371Z,1.27
